sensor_id;sensor_type;location;lat;lon;timestamp;temperature;humidity
19516;DHT22;9901;47.448;7.692;2022-08-01T00:02:19;22.90;99.90
19516;DHT22;9901;47.448;7.692;2022-08-01T00:04:45;22.80;99.90
19516;DHT22;9901;47.448;7.692;2022-08-01T00:07:11;22.80;99.90
19516;DHT22;9901;47.448;7.692;2022-08-01T00:09:37;22.70;99.90
19516;DHT22;9901;47.448;7.692;2022-08-01T00:12:02;22.60;99.90
19516;DHT22;9901;47.448;7.692;2022-08-01T00:14:30;22.50;99.90
19516;DHT22;9901;47.448;7.692;2022-08-01T00:16:56;22.50;99.90
19516;DHT22;9901;47.448;7.692;2022-08-01T00:19:21;22.50;99.90
19516;DHT22;9901;47.448;7.692;2022-08-01T00:21:47;22.50;99.90
19516;DHT22;9901;47.448;7.692;2022-08-01T00:24:13;22.50;99.90
19516;DHT22;9901;47.448;7.692;2022-08-01T00:26:39;22.50;99.90
19516;DHT22;9901;47.448;7.692;2022-08-01T00:29:05;22.50;99.90
19516;DHT22;9901;47.448;7.692;2022-08-01T00:31:30;22.50;99.90
19516;DHT22;9901;47.448;7.692;2022-08-01T00:33:56;22.40;99.90
19516;DHT22;9901;47.448;7.692;2022-08-01T00:36:22;22.50;99.90
19516;DHT22;9901;47.448;7.692;2022-08-01T00:38:48;22.50;99.90
19516;DHT22;9901;47.448;7.692;2022-08-01T00:41:13;22.40;99.90
19516;DHT22;9901;47.448;7.692;2022-08-01T00:43:39;22.30;99.90
19516;DHT22;9901;47.448;7.692;2022-08-01T00:46:05;22.40;99.90
19516;DHT22;9901;47.448;7.692;2022-08-01T00:48:30;22.30;99.90
19516;DHT22;9901;47.448;7.692;2022-08-01T00:50:56;22.30;99.90
19516;DHT22;9901;47.448;7.692;2022-08-01T00:53:22;22.30;99.90
19516;DHT22;9901;47.448;7.692;2022-08-01T00:55:48;22.30;99.90
19516;DHT22;9901;47.448;7.692;2022-08-01T00:58:13;22.20;99.90
19516;DHT22;9901;47.448;7.692;2022-08-01T01:00:39;22.20;99.90
19516;DHT22;9901;47.448;7.692;2022-08-01T01:03:06;22.10;99.90
19516;DHT22;9901;47.448;7.692;2022-08-01T01:05:36;22.00;99.90
19516;DHT22;9901;47.448;7.692;2022-08-01T01:08:18;22.00;99.90
19516;DHT22;9901;47.448;7.692;2022-08-01T01:10:54;22.00;99.90
19516;DHT22;9901;47.448;7.692;2022-08-01T01:16:28;22.00;99.90
19516;DHT22;9901;47.448;7.692;2022-08-01T01:18:57;21.90;99.90
19516;DHT22;9901;47.448;7.692;2022-08-01T01:21:52;21.90;99.90
19516;DHT22;9901;47.448;7.692;2022-08-01T01:24:38;21.90;99.90
19516;DHT22;9901;47.448;7.692;2022-08-01T01:27:16;21.90;99.90
19516;DHT22;9901;47.448;7.692;2022-08-01T01:29:48;21.90;99.90
19516;DHT22;9901;47.448;7.692;2022-08-01T01:35:03;21.80;99.90
19516;DHT22;9901;47.448;7.692;2022-08-01T01:37:32;21.70;99.90
19516;DHT22;9901;47.448;7.692;2022-08-01T01:39:59;21.50;99.90
19516;DHT22;9901;47.448;7.692;2022-08-01T01:42:26;21.50;99.90
19516;DHT22;9901;47.448;7.692;2022-08-01T01:44:53;21.50;99.90
19516;DHT22;9901;47.448;7.692;2022-08-01T01:47:20;21.60;99.90
19516;DHT22;9901;47.448;7.692;2022-08-01T01:49:48;21.60;99.90
19516;DHT22;9901;47.448;7.692;2022-08-01T01:52:16;21.60;99.90
19516;DHT22;9901;47.448;7.692;2022-08-01T01:54:47;21.60;99.90
19516;DHT22;9901;47.448;7.692;2022-08-01T01:57:15;21.70;99.90
19516;DHT22;9901;47.448;7.692;2022-08-01T01:59:42;21.70;99.90
19516;DHT22;9901;47.448;7.692;2022-08-01T02:02:09;21.70;99.90
19516;DHT22;9901;47.448;7.692;2022-08-01T02:04:37;21.60;99.90
19516;DHT22;9901;47.448;7.692;2022-08-01T02:07:03;21.60;99.90
19516;DHT22;9901;47.448;7.692;2022-08-01T02:09:32;21.50;99.90
19516;DHT22;9901;47.448;7.692;2022-08-01T02:11:59;21.50;99.90
19516;DHT22;9901;47.448;7.692;2022-08-01T02:14:26;21.40;99.90
19516;DHT22;9901;47.448;7.692;2022-08-01T02:16:54;21.40;99.90
19516;DHT22;9901;47.448;7.692;2022-08-01T02:19:20;21.40;99.90
19516;DHT22;9901;47.448;7.692;2022-08-01T02:22:01;21.40;99.90
19516;DHT22;9901;47.448;7.692;2022-08-01T02:24:40;21.40;99.90
19516;DHT22;9901;47.448;7.692;2022-08-01T02:27:10;21.40;99.90
19516;DHT22;9901;47.448;7.692;2022-08-01T02:29:45;21.40;99.90
19516;DHT22;9901;47.448;7.692;2022-08-01T02:32:32;21.40;99.90
19516;DHT22;9901;47.448;7.692;2022-08-01T02:35:00;21.40;99.90
19516;DHT22;9901;47.448;7.692;2022-08-01T02:37:29;21.30;99.90
19516;DHT22;9901;47.448;7.692;2022-08-01T02:40:01;21.30;99.90
19516;DHT22;9901;47.448;7.692;2022-08-01T02:42:28;21.20;99.90
19516;DHT22;9901;47.448;7.692;2022-08-01T02:44:56;21.10;99.90
19516;DHT22;9901;47.448;7.692;2022-08-01T02:47:23;21.10;99.90
19516;DHT22;9901;47.448;7.692;2022-08-01T02:49:52;20.90;99.90
19516;DHT22;9901;47.448;7.692;2022-08-01T02:52:20;20.90;99.90
19516;DHT22;9901;47.448;7.692;2022-08-01T02:54:49;20.90;99.90
19516;DHT22;9901;47.448;7.692;2022-08-01T02:57:18;20.80;99.90
19516;DHT22;9901;47.448;7.692;2022-08-01T02:59:46;20.80;99.90
19516;DHT22;9901;47.448;7.692;2022-08-01T03:02:13;20.80;99.90
19516;DHT22;9901;47.448;7.692;2022-08-01T03:04:40;20.80;99.90
19516;DHT22;9901;47.448;7.692;2022-08-01T03:07:09;20.80;99.90
19516;DHT22;9901;47.448;7.692;2022-08-01T03:09:44;20.80;99.90
19516;DHT22;9901;47.448;7.692;2022-08-01T03:12:16;20.70;99.90
19516;DHT22;9901;47.448;7.692;2022-08-01T03:14:43;20.70;99.90
19516;DHT22;9901;47.448;7.692;2022-08-01T03:17:10;20.60;99.90
19516;DHT22;9901;47.448;7.692;2022-08-01T03:19:38;20.60;99.90
19516;DHT22;9901;47.448;7.692;2022-08-01T03:22:10;20.60;99.90
19516;DHT22;9901;47.448;7.692;2022-08-01T03:24:38;20.70;99.90
19516;DHT22;9901;47.448;7.692;2022-08-01T03:27:06;20.60;99.90
19516;DHT22;9901;47.448;7.692;2022-08-01T03:29:33;20.60;99.90
19516;DHT22;9901;47.448;7.692;2022-08-01T03:32:00;20.60;99.90
19516;DHT22;9901;47.448;7.692;2022-08-01T03:34:27;20.40;99.90
19516;DHT22;9901;47.448;7.692;2022-08-01T03:36:57;20.40;99.90
19516;DHT22;9901;47.448;7.692;2022-08-01T03:39:29;20.40;99.90
19516;DHT22;9901;47.448;7.692;2022-08-01T03:41:59;20.40;99.90
19516;DHT22;9901;47.448;7.692;2022-08-01T03:44:27;20.30;99.90
19516;DHT22;9901;47.448;7.692;2022-08-01T03:47:04;20.30;99.90
19516;DHT22;9901;47.448;7.692;2022-08-01T03:49:33;20.20;99.90
19516;DHT22;9901;47.448;7.692;2022-08-01T03:52:06;20.30;99.90
19516;DHT22;9901;47.448;7.692;2022-08-01T03:54:36;20.30;99.90
19516;DHT22;9901;47.448;7.692;2022-08-01T03:57:03;20.30;99.90
19516;DHT22;9901;47.448;7.692;2022-08-01T03:59:30;20.30;99.90
19516;DHT22;9901;47.448;7.692;2022-08-01T04:01:58;20.20;99.90
19516;DHT22;9901;47.448;7.692;2022-08-01T04:04:24;20.10;99.90
19516;DHT22;9901;47.448;7.692;2022-08-01T04:06:50;20.10;99.90
19516;DHT22;9901;47.448;7.692;2022-08-01T04:09:20;20.20;99.90
19516;DHT22;9901;47.448;7.692;2022-08-01T04:11:46;20.20;99.90
19516;DHT22;9901;47.448;7.692;2022-08-01T04:14:12;20.20;99.90
19516;DHT22;9901;47.448;7.692;2022-08-01T04:16:38;20.20;99.90
19516;DHT22;9901;47.448;7.692;2022-08-01T04:19:04;20.20;99.90
19516;DHT22;9901;47.448;7.692;2022-08-01T04:21:34;20.20;99.90
19516;DHT22;9901;47.448;7.692;2022-08-01T04:24:12;20.10;99.90
19516;DHT22;9901;47.448;7.692;2022-08-01T04:26:39;20.20;99.90
19516;DHT22;9901;47.448;7.692;2022-08-01T04:29:07;20.20;99.90
19516;DHT22;9901;47.448;7.692;2022-08-01T04:31:34;20.20;99.90
19516;DHT22;9901;47.448;7.692;2022-08-01T04:34:02;20.10;99.90
19516;DHT22;9901;47.448;7.692;2022-08-01T04:36:28;20.00;99.90
19516;DHT22;9901;47.448;7.692;2022-08-01T04:39:00;19.90;99.90
19516;DHT22;9901;47.448;7.692;2022-08-01T04:41:26;19.90;99.90
19516;DHT22;9901;47.448;7.692;2022-08-01T04:43:53;19.80;99.90
19516;DHT22;9901;47.448;7.692;2022-08-01T04:46:20;19.80;99.90
19516;DHT22;9901;47.448;7.692;2022-08-01T04:48:47;19.80;99.90
19516;DHT22;9901;47.448;7.692;2022-08-01T04:51:17;19.80;99.90
19516;DHT22;9901;47.448;7.692;2022-08-01T04:53:47;19.80;99.90
19516;DHT22;9901;47.448;7.692;2022-08-01T04:56:13;19.80;99.90
19516;DHT22;9901;47.448;7.692;2022-08-01T04:58:42;19.80;99.90
19516;DHT22;9901;47.448;7.692;2022-08-01T05:01:09;19.70;99.90
19516;DHT22;9901;47.448;7.692;2022-08-01T05:03:36;19.70;99.90
19516;DHT22;9901;47.448;7.692;2022-08-01T05:06:01;19.70;99.90
19516;DHT22;9901;47.448;7.692;2022-08-01T05:08:27;19.80;99.90
19516;DHT22;9901;47.448;7.692;2022-08-01T05:10:53;19.70;99.90
19516;DHT22;9901;47.448;7.692;2022-08-01T05:13:19;19.80;99.90
19516;DHT22;9901;47.448;7.692;2022-08-01T05:15:45;19.80;99.90
19516;DHT22;9901;47.448;7.692;2022-08-01T05:18:11;19.70;99.90
19516;DHT22;9901;47.448;7.692;2022-08-01T05:20:37;19.70;99.90
19516;DHT22;9901;47.448;7.692;2022-08-01T05:23:06;19.70;99.90
19516;DHT22;9901;47.448;7.692;2022-08-01T05:25:32;19.70;99.90
19516;DHT22;9901;47.448;7.692;2022-08-01T05:27:59;19.70;99.90
19516;DHT22;9901;47.448;7.692;2022-08-01T05:30:25;19.70;99.90
19516;DHT22;9901;47.448;7.692;2022-08-01T05:32:50;19.70;99.90
19516;DHT22;9901;47.448;7.692;2022-08-01T05:35:16;19.70;99.90
19516;DHT22;9901;47.448;7.692;2022-08-01T05:37:42;19.60;99.90
19516;DHT22;9901;47.448;7.692;2022-08-01T05:40:08;19.60;99.90
19516;DHT22;9901;47.448;7.692;2022-08-01T05:42:33;19.60;99.90
19516;DHT22;9901;47.448;7.692;2022-08-01T05:44:59;19.70;99.90
19516;DHT22;9901;47.448;7.692;2022-08-01T05:47:25;19.60;99.90
19516;DHT22;9901;47.448;7.692;2022-08-01T05:49:51;19.70;99.90
19516;DHT22;9901;47.448;7.692;2022-08-01T05:52:16;19.70;99.90
19516;DHT22;9901;47.448;7.692;2022-08-01T05:54:42;19.70;99.90
19516;DHT22;9901;47.448;7.692;2022-08-01T05:57:08;19.70;99.90
19516;DHT22;9901;47.448;7.692;2022-08-01T05:59:33;19.70;99.90
19516;DHT22;9901;47.448;7.692;2022-08-01T06:02:00;19.80;99.90
19516;DHT22;9901;47.448;7.692;2022-08-01T06:04:25;19.90;99.90
19516;DHT22;9901;47.448;7.692;2022-08-01T06:06:51;19.90;99.90
19516;DHT22;9901;47.448;7.692;2022-08-01T06:09:17;20.00;99.90
19516;DHT22;9901;47.448;7.692;2022-08-01T06:11:42;20.00;99.90
19516;DHT22;9901;47.448;7.692;2022-08-01T06:14:08;20.20;99.90
19516;DHT22;9901;47.448;7.692;2022-08-01T06:16:34;20.20;99.90
19516;DHT22;9901;47.448;7.692;2022-08-01T06:18:59;20.30;99.90
19516;DHT22;9901;47.448;7.692;2022-08-01T06:21:25;20.40;99.90
19516;DHT22;9901;47.448;7.692;2022-08-01T06:23:51;20.50;99.90
19516;DHT22;9901;47.448;7.692;2022-08-01T06:26:20;20.50;99.90
19516;DHT22;9901;47.448;7.692;2022-08-01T06:28:46;20.70;99.90
19516;DHT22;9901;47.448;7.692;2022-08-01T06:31:12;20.80;99.90
19516;DHT22;9901;47.448;7.692;2022-08-01T06:33:39;20.80;99.90
19516;DHT22;9901;47.448;7.692;2022-08-01T06:36:05;20.90;99.90
19516;DHT22;9901;47.448;7.692;2022-08-01T06:38:31;21.00;99.90
19516;DHT22;9901;47.448;7.692;2022-08-01T06:40:56;21.10;99.90
19516;DHT22;9901;47.448;7.692;2022-08-01T06:43:22;21.20;99.90
19516;DHT22;9901;47.448;7.692;2022-08-01T06:45:48;21.30;99.90
19516;DHT22;9901;47.448;7.692;2022-08-01T06:48:14;21.40;99.90
19516;DHT22;9901;47.448;7.692;2022-08-01T06:50:43;21.40;99.90
19516;DHT22;9901;47.448;7.692;2022-08-01T06:53:08;21.60;99.90
19516;DHT22;9901;47.448;7.692;2022-08-01T06:55:34;21.70;99.90
19516;DHT22;9901;47.448;7.692;2022-08-01T06:58:00;21.80;99.90
19516;DHT22;9901;47.448;7.692;2022-08-01T07:00:26;21.90;99.90
19516;DHT22;9901;47.448;7.692;2022-08-01T07:02:53;22.00;99.90
19516;DHT22;9901;47.448;7.692;2022-08-01T07:05:20;22.10;99.90
19516;DHT22;9901;47.448;7.692;2022-08-01T07:07:45;22.20;99.90
19516;DHT22;9901;47.448;7.692;2022-08-01T07:10:11;22.30;99.90
19516;DHT22;9901;47.448;7.692;2022-08-01T07:12:37;22.50;99.90
19516;DHT22;9901;47.448;7.692;2022-08-01T07:15:07;22.60;99.90
19516;DHT22;9901;47.448;7.692;2022-08-01T07:17:40;22.70;99.90
19516;DHT22;9901;47.448;7.692;2022-08-01T07:20:08;22.90;99.90
19516;DHT22;9901;47.448;7.692;2022-08-01T07:22:34;22.90;99.90
19516;DHT22;9901;47.448;7.692;2022-08-01T07:25:00;23.00;99.90
19516;DHT22;9901;47.448;7.692;2022-08-01T07:27:26;23.00;99.90
19516;DHT22;9901;47.448;7.692;2022-08-01T07:29:52;23.20;99.90
19516;DHT22;9901;47.448;7.692;2022-08-01T07:32:17;23.20;99.90
19516;DHT22;9901;47.448;7.692;2022-08-01T07:34:43;23.20;99.90
19516;DHT22;9901;47.448;7.692;2022-08-01T07:37:08;23.40;99.90
19516;DHT22;9901;47.448;7.692;2022-08-01T07:39:34;23.50;99.90
19516;DHT22;9901;47.448;7.692;2022-08-01T07:42:00;23.60;99.90
19516;DHT22;9901;47.448;7.692;2022-08-01T07:44:26;23.70;99.90
19516;DHT22;9901;47.448;7.692;2022-08-01T07:46:51;23.60;99.90
19516;DHT22;9901;47.448;7.692;2022-08-01T07:49:17;23.70;99.90
19516;DHT22;9901;47.448;7.692;2022-08-01T07:51:43;23.80;99.90
19516;DHT22;9901;47.448;7.692;2022-08-01T07:54:08;23.80;99.90
19516;DHT22;9901;47.448;7.692;2022-08-01T07:56:34;23.80;99.90
19516;DHT22;9901;47.448;7.692;2022-08-01T07:59:00;23.80;99.90
19516;DHT22;9901;47.448;7.692;2022-08-01T08:01:25;23.90;99.90
19516;DHT22;9901;47.448;7.692;2022-08-01T08:03:52;24.00;99.90
19516;DHT22;9901;47.448;7.692;2022-08-01T08:06:17;24.10;99.90
19516;DHT22;9901;47.448;7.692;2022-08-01T08:08:43;24.20;99.90
19516;DHT22;9901;47.448;7.692;2022-08-01T08:11:09;24.30;99.90
19516;DHT22;9901;47.448;7.692;2022-08-01T08:13:35;24.50;99.90
19516;DHT22;9901;47.448;7.692;2022-08-01T08:16:01;24.70;99.90
19516;DHT22;9901;47.448;7.692;2022-08-01T08:18:26;24.80;99.90
19516;DHT22;9901;47.448;7.692;2022-08-01T08:20:52;24.90;99.90
19516;DHT22;9901;47.448;7.692;2022-08-01T08:23:18;25.00;99.90
19516;DHT22;9901;47.448;7.692;2022-08-01T08:26:02;25.10;99.90
19516;DHT22;9901;47.448;7.692;2022-08-01T08:28:28;25.30;99.90
19516;DHT22;9901;47.448;7.692;2022-08-01T08:30:53;25.30;99.90
19516;DHT22;9901;47.448;7.692;2022-08-01T08:33:20;25.40;99.90
19516;DHT22;9901;47.448;7.692;2022-08-01T08:35:46;25.50;99.90
19516;DHT22;9901;47.448;7.692;2022-08-01T08:38:12;25.50;99.90
19516;DHT22;9901;47.448;7.692;2022-08-01T08:40:38;25.60;99.90
19516;DHT22;9901;47.448;7.692;2022-08-01T08:43:05;25.70;99.90
19516;DHT22;9901;47.448;7.692;2022-08-01T08:45:32;25.80;99.90
19516;DHT22;9901;47.448;7.692;2022-08-01T08:47:58;25.90;99.90
19516;DHT22;9901;47.448;7.692;2022-08-01T08:50:25;26.00;99.10
19516;DHT22;9901;47.448;7.692;2022-08-01T08:52:53;26.00;98.60
19516;DHT22;9901;47.448;7.692;2022-08-01T08:55:20;26.10;98.80
19516;DHT22;9901;47.448;7.692;2022-08-01T08:57:47;26.20;99.50
19516;DHT22;9901;47.448;7.692;2022-08-01T09:00:14;26.40;98.70
19516;DHT22;9901;47.448;7.692;2022-08-01T09:02:44;26.60;97.80
19516;DHT22;9901;47.448;7.692;2022-08-01T09:05:11;26.60;97.50
19516;DHT22;9901;47.448;7.692;2022-08-01T09:07:37;26.70;97.60
19516;DHT22;9901;47.448;7.692;2022-08-01T09:10:04;26.80;97.50
19516;DHT22;9901;47.448;7.692;2022-08-01T09:12:30;26.90;97.00
19516;DHT22;9901;47.448;7.692;2022-08-01T09:14:55;26.90;96.80
19516;DHT22;9901;47.448;7.692;2022-08-01T09:17:21;27.10;96.80
19516;DHT22;9901;47.448;7.692;2022-08-01T09:19:50;27.20;96.60
19516;DHT22;9901;47.448;7.692;2022-08-01T09:22:21;27.30;96.50
19516;DHT22;9901;47.448;7.692;2022-08-01T09:27:28;27.60;96.20
19516;DHT22;9901;47.448;7.692;2022-08-01T09:29:54;27.70;96.40
19516;DHT22;9901;47.448;7.692;2022-08-01T09:32:20;27.90;95.80
19516;DHT22;9901;47.448;7.692;2022-08-01T09:34:46;28.00;96.00
19516;DHT22;9901;47.448;7.692;2022-08-01T09:37:12;28.00;95.20
19516;DHT22;9901;47.448;7.692;2022-08-01T09:39:39;28.10;94.70
19516;DHT22;9901;47.448;7.692;2022-08-01T09:42:22;28.30;95.10
19516;DHT22;9901;47.448;7.692;2022-08-01T09:44:49;28.50;95.00
19516;DHT22;9901;47.448;7.692;2022-08-01T09:47:15;28.60;95.10
19516;DHT22;9901;47.448;7.692;2022-08-01T09:49:42;28.90;96.10
19516;DHT22;9901;47.448;7.692;2022-08-01T09:52:14;28.90;94.70
19516;DHT22;9901;47.448;7.692;2022-08-01T09:54:41;29.10;94.40
19516;DHT22;9901;47.448;7.692;2022-08-01T09:57:15;29.40;94.90
19516;DHT22;9901;47.448;7.692;2022-08-01T09:59:43;29.80;94.40
19516;DHT22;9901;47.448;7.692;2022-08-01T10:02:11;30.10;93.80
19516;DHT22;9901;47.448;7.692;2022-08-01T10:04:49;30.20;93.10
19516;DHT22;9901;47.448;7.692;2022-08-01T10:07:15;30.30;92.70
19516;DHT22;9901;47.448;7.692;2022-08-01T10:09:41;30.70;93.10
19516;DHT22;9901;47.448;7.692;2022-08-01T10:12:09;30.80;92.30
19516;DHT22;9901;47.448;7.692;2022-08-01T10:14:37;30.90;92.60
19516;DHT22;9901;47.448;7.692;2022-08-01T10:17:04;31.10;92.50
19516;DHT22;9901;47.448;7.692;2022-08-01T10:19:32;31.20;92.20
19516;DHT22;9901;47.448;7.692;2022-08-01T10:21:58;31.20;91.30
19516;DHT22;9901;47.448;7.692;2022-08-01T10:24:26;31.50;90.80
19516;DHT22;9901;47.448;7.692;2022-08-01T10:26:56;31.60;90.00
19516;DHT22;9901;47.448;7.692;2022-08-01T10:29:26;31.80;90.30
19516;DHT22;9901;47.448;7.692;2022-08-01T10:31:52;32.00;90.50
19516;DHT22;9901;47.448;7.692;2022-08-01T10:34:19;32.00;89.80
19516;DHT22;9901;47.448;7.692;2022-08-01T10:36:46;32.10;90.60
19516;DHT22;9901;47.448;7.692;2022-08-01T10:39:13;32.40;90.60
19516;DHT22;9901;47.448;7.692;2022-08-01T10:41:40;32.30;89.70
19516;DHT22;9901;47.448;7.692;2022-08-01T10:44:09;32.50;90.10
19516;DHT22;9901;47.448;7.692;2022-08-01T10:46:42;33.00;89.00
19516;DHT22;9901;47.448;7.692;2022-08-01T10:49:11;33.00;88.90
19516;DHT22;9901;47.448;7.692;2022-08-01T10:51:39;33.10;89.30
19516;DHT22;9901;47.448;7.692;2022-08-01T10:54:07;33.00;88.60
19516;DHT22;9901;47.448;7.692;2022-08-01T10:56:59;33.20;88.30
19516;DHT22;9901;47.448;7.692;2022-08-01T10:59:27;33.20;86.00
19516;DHT22;9901;47.448;7.692;2022-08-01T11:02:04;33.40;88.90
19516;DHT22;9901;47.448;7.692;2022-08-01T11:04:51;33.40;87.90
19516;DHT22;9901;47.448;7.692;2022-08-01T11:07:23;33.70;90.00
19516;DHT22;9901;47.448;7.692;2022-08-01T11:10:03;33.70;89.80
19516;DHT22;9901;47.448;7.692;2022-08-01T11:12:40;34.00;89.50
19516;DHT22;9901;47.448;7.692;2022-08-01T11:17:40;34.30;88.70
19516;DHT22;9901;47.448;7.692;2022-08-01T11:20:27;34.50;90.00
19516;DHT22;9901;47.448;7.692;2022-08-01T11:30:44;34.80;87.70
19516;DHT22;9901;47.448;7.692;2022-08-01T11:33:11;34.90;87.80
19516;DHT22;9901;47.448;7.692;2022-08-01T11:35:39;35.00;89.10
19516;DHT22;9901;47.448;7.692;2022-08-01T11:38:27;34.80;87.50
19516;DHT22;9901;47.448;7.692;2022-08-01T11:41:21;34.70;85.60
19516;DHT22;9901;47.448;7.692;2022-08-01T11:44:07;34.40;87.50
19516;DHT22;9901;47.448;7.692;2022-08-01T11:47:04;34.70;88.30
19516;DHT22;9901;47.448;7.692;2022-08-01T11:52:08;35.10;87.80
19516;DHT22;9901;47.448;7.692;2022-08-01T11:54:47;35.30;86.40
19516;DHT22;9901;47.448;7.692;2022-08-01T11:57:14;35.10;87.70
19516;DHT22;9901;47.448;7.692;2022-08-01T11:59:54;35.30;86.70
19516;DHT22;9901;47.448;7.692;2022-08-01T12:02:29;35.60;86.30
19516;DHT22;9901;47.448;7.692;2022-08-01T12:05:06;35.70;85.00
19516;DHT22;9901;47.448;7.692;2022-08-01T12:07:33;35.30;83.00
19516;DHT22;9901;47.448;7.692;2022-08-01T12:12:34;35.50;82.50
19516;DHT22;9901;47.448;7.692;2022-08-01T12:15:03;35.50;82.30
19516;DHT22;9901;47.448;7.692;2022-08-01T12:17:41;35.50;83.60
19516;DHT22;9901;47.448;7.692;2022-08-01T12:20:10;35.50;84.40
19516;DHT22;9901;47.448;7.692;2022-08-01T12:22:37;35.50;84.60
19516;DHT22;9901;47.448;7.692;2022-08-01T12:27:36;35.80;83.80
19516;DHT22;9901;47.448;7.692;2022-08-01T12:30:05;36.10;82.90
19516;DHT22;9901;47.448;7.692;2022-08-01T12:32:34;36.40;83.70
19516;DHT22;9901;47.448;7.692;2022-08-01T12:35:10;36.50;82.40
19516;DHT22;9901;47.448;7.692;2022-08-01T12:37:47;36.30;83.20
19516;DHT22;9901;47.448;7.692;2022-08-01T12:40:24;36.50;83.00
19516;DHT22;9901;47.448;7.692;2022-08-01T12:42:52;36.90;82.40
19516;DHT22;9901;47.448;7.692;2022-08-01T12:45:34;36.50;81.80
19516;DHT22;9901;47.448;7.692;2022-08-01T12:48:01;36.40;82.50
19516;DHT22;9901;47.448;7.692;2022-08-01T12:50:30;36.60;82.40
19516;DHT22;9901;47.448;7.692;2022-08-01T12:52:56;36.60;81.00
19516;DHT22;9901;47.448;7.692;2022-08-01T12:55:24;36.70;81.50
19516;DHT22;9901;47.448;7.692;2022-08-01T12:58:06;36.80;81.20
19516;DHT22;9901;47.448;7.692;2022-08-01T13:00:34;36.50;80.20
19516;DHT22;9901;47.448;7.692;2022-08-01T13:03:13;36.80;80.10
19516;DHT22;9901;47.448;7.692;2022-08-01T13:05:54;36.70;78.50
19516;DHT22;9901;47.448;7.692;2022-08-01T13:10:47;37.00;79.50
19516;DHT22;9901;47.448;7.692;2022-08-01T13:13:15;37.40;79.10
19516;DHT22;9901;47.448;7.692;2022-08-01T13:15:43;37.10;77.80
19516;DHT22;9901;47.448;7.692;2022-08-01T13:20:49;36.20;78.90
19516;DHT22;9901;47.448;7.692;2022-08-01T13:23:19;36.30;78.00
19516;DHT22;9901;47.448;7.692;2022-08-01T13:25:55;35.90;79.00
19516;DHT22;9901;47.448;7.692;2022-08-01T13:28:26;35.10;78.80
19516;DHT22;9901;47.448;7.692;2022-08-01T13:30:57;35.30;78.90
19516;DHT22;9901;47.448;7.692;2022-08-01T13:33:25;35.70;78.40
19516;DHT22;9901;47.448;7.692;2022-08-01T13:35:53;36.00;78.00
19516;DHT22;9901;47.448;7.692;2022-08-01T13:38:19;36.20;76.90
19516;DHT22;9901;47.448;7.692;2022-08-01T13:40:45;36.00;77.10
19516;DHT22;9901;47.448;7.692;2022-08-01T13:43:11;36.20;77.10
19516;DHT22;9901;47.448;7.692;2022-08-01T13:45:37;36.40;77.10
19516;DHT22;9901;47.448;7.692;2022-08-01T13:48:04;36.00;76.70
19516;DHT22;9901;47.448;7.692;2022-08-01T13:50:30;35.40;77.20
19516;DHT22;9901;47.448;7.692;2022-08-01T13:52:56;34.80;77.90
19516;DHT22;9901;47.448;7.692;2022-08-01T13:55:21;34.40;79.20
19516;DHT22;9901;47.448;7.692;2022-08-01T13:57:47;34.30;80.10
19516;DHT22;9901;47.448;7.692;2022-08-01T14:00:13;34.70;80.50
19516;DHT22;9901;47.448;7.692;2022-08-01T14:02:39;34.80;79.70
19516;DHT22;9901;47.448;7.692;2022-08-01T14:05:05;34.30;80.10
19516;DHT22;9901;47.448;7.692;2022-08-01T14:07:31;33.90;80.40
19516;DHT22;9901;47.448;7.692;2022-08-01T14:09:57;33.60;81.90
19516;DHT22;9901;47.448;7.692;2022-08-01T14:12:23;33.60;82.10
19516;DHT22;9901;47.448;7.692;2022-08-01T14:14:49;33.90;82.10
19516;DHT22;9901;47.448;7.692;2022-08-01T14:17:14;34.20;82.90
19516;DHT22;9901;47.448;7.692;2022-08-01T14:19:40;34.10;82.30
19516;DHT22;9901;47.448;7.692;2022-08-01T14:22:06;34.40;81.50
19516;DHT22;9901;47.448;7.692;2022-08-01T14:24:31;34.40;81.00
19516;DHT22;9901;47.448;7.692;2022-08-01T14:26:57;34.30;81.10
19516;DHT22;9901;47.448;7.692;2022-08-01T14:29:23;34.20;81.40
19516;DHT22;9901;47.448;7.692;2022-08-01T14:31:49;34.70;81.00
19516;DHT22;9901;47.448;7.692;2022-08-01T14:34:14;34.80;80.10
19516;DHT22;9901;47.448;7.692;2022-08-01T14:36:41;34.60;79.80
19516;DHT22;9901;47.448;7.692;2022-08-01T14:39:07;34.30;79.70
19516;DHT22;9901;47.448;7.692;2022-08-01T14:41:32;33.90;80.50
19516;DHT22;9901;47.448;7.692;2022-08-01T14:43:58;33.80;80.90
19516;DHT22;9901;47.448;7.692;2022-08-01T14:46:25;33.90;81.80
19516;DHT22;9901;47.448;7.692;2022-08-01T14:48:50;33.70;81.40
19516;DHT22;9901;47.448;7.692;2022-08-01T14:51:16;33.10;81.40
19516;DHT22;9901;47.448;7.692;2022-08-01T14:53:42;33.00;83.00
19516;DHT22;9901;47.448;7.692;2022-08-01T14:56:08;33.00;83.50
19516;DHT22;9901;47.448;7.692;2022-08-01T14:58:34;33.40;83.40
19516;DHT22;9901;47.448;7.692;2022-08-01T15:01:00;33.50;82.30
19516;DHT22;9901;47.448;7.692;2022-08-01T15:03:26;33.40;82.30
19516;DHT22;9901;47.448;7.692;2022-08-01T15:05:52;33.20;83.20
19516;DHT22;9901;47.448;7.692;2022-08-01T15:08:17;32.80;83.30
19516;DHT22;9901;47.448;7.692;2022-08-01T15:10:44;32.60;84.20
19516;DHT22;9901;47.448;7.692;2022-08-01T15:13:10;32.50;85.40
19516;DHT22;9901;47.448;7.692;2022-08-01T15:15:36;32.40;85.00
19516;DHT22;9901;47.448;7.692;2022-08-01T15:18:01;32.30;85.40
19516;DHT22;9901;47.448;7.692;2022-08-01T15:20:27;32.20;85.50
19516;DHT22;9901;47.448;7.692;2022-08-01T15:22:53;32.20;86.30
19516;DHT22;9901;47.448;7.692;2022-08-01T15:25:20;32.20;87.00
19516;DHT22;9901;47.448;7.692;2022-08-01T15:27:45;32.50;86.90
19516;DHT22;9901;47.448;7.692;2022-08-01T15:30:11;32.90;86.00
19516;DHT22;9901;47.448;7.692;2022-08-01T15:32:37;33.20;86.10
19516;DHT22;9901;47.448;7.692;2022-08-01T15:35:04;33.50;85.30
19516;DHT22;9901;47.448;7.692;2022-08-01T15:37:31;33.40;84.70
19516;DHT22;9901;47.448;7.692;2022-08-01T15:39:57;33.10;85.70
19516;DHT22;9901;47.448;7.692;2022-08-01T15:42:22;32.70;85.40
19516;DHT22;9901;47.448;7.692;2022-08-01T15:44:48;32.50;85.80
19516;DHT22;9901;47.448;7.692;2022-08-01T15:47:14;32.40;86.40
19516;DHT22;9901;47.448;7.692;2022-08-01T15:49:39;32.40;86.90
19516;DHT22;9901;47.448;7.692;2022-08-01T15:52:06;32.50;87.10
19516;DHT22;9901;47.448;7.692;2022-08-01T15:54:32;32.60;85.80
19516;DHT22;9901;47.448;7.692;2022-08-01T15:56:59;32.70;85.80
19516;DHT22;9901;47.448;7.692;2022-08-01T15:59:24;32.70;85.60
19516;DHT22;9901;47.448;7.692;2022-08-01T16:01:50;32.90;86.00
19516;DHT22;9901;47.448;7.692;2022-08-01T16:04:17;32.90;85.90
19516;DHT22;9901;47.448;7.692;2022-08-01T16:06:44;32.70;86.30
19516;DHT22;9901;47.448;7.692;2022-08-01T16:09:10;32.10;86.20
19516;DHT22;9901;47.448;7.692;2022-08-01T16:11:35;31.70;87.20
19516;DHT22;9901;47.448;7.692;2022-08-01T16:14:02;31.40;87.60
19516;DHT22;9901;47.448;7.692;2022-08-01T16:16:29;31.10;88.10
19516;DHT22;9901;47.448;7.692;2022-08-01T16:18:55;31.00;88.80
19516;DHT22;9901;47.448;7.692;2022-08-01T16:21:21;30.70;88.80
19516;DHT22;9901;47.448;7.692;2022-08-01T16:23:49;30.60;88.90